Aviation Digital Data Service (ADDS)

Output produced by METARs form (2221 UTC 28 August 2016)
found at http://aviationweather.gov/adds/metars/
 
KATL 282159Z 2822/2924 07010KT P6SM VCSH SCT050 
     FM290000 06007KT P6SM SCT250 
     FM291400 07010KT P6SM SCT045